Time;durP1;ratioP1;P1;durP2;ratioP2;P2;SDS_P1;SDS_P2;PMS_P1;PMS_P2;Temp;Humidity;BMP_temperature;BMP_pressure;BME280_temperature;BME280_humidity;BME280_pressure;Samples;Min_cycle;Max_cycle;Signal;HPM_P1;HPM_P2
2021/11/08 00:00:15;;;;;;;165.38;83.38;;;;;;;12.29;72.05;95158.31;4889267;29;20044;-83
2021/11/08 00:02:42;;;;;;;168.43;86.68;;;;;;;12.28;71.11;95161.16;4890842;29;20033;-82
2021/11/08 00:05:07;;;;;;;156.48;80.65;;;;;;;12.21;71.06;95155.31;4873524;29;20040;-83
2021/11/08 00:07:33;;;;;;;167.93;82.90;;;;;;;12.15;70.81;95167.44;4891932;29;20039;-83
2021/11/08 00:09:59;;;;;;;167.40;80.00;;;;;;;12.13;70.64;95166.09;4872799;29;20093;-83
2021/11/08 00:12:25;;;;;;;139.80;71.05;;;;;;;12.14;71.81;95173.69;4857459;29;20044;-83
2021/11/08 00:14:55;;;;;;;118.57;62.03;;;;;;;12.16;72.31;95163.81;4878166;29;20047;-81
2021/11/08 00:17:45;;;;;;;127.28;64.20;;;;;;;12.17;71.62;95156.78;4907840;29;20047;-81
2021/11/08 00:20:22;;;;;;;125.72;63.95;;;;;;;12.15;71.39;95157.03;4912214;29;20065;-82
2021/11/08 00:25:43;;;;;;;130.27;60.13;;;;;;;12.08;71.90;95152.97;5542688;23;20540;-82
2021/11/08 00:28:10;;;;;;;109.18;56.47;;;;;;;12.16;72.01;95163.03;4874091;29;20034;-81
2021/11/08 00:30:37;;;;;;;125.07;60.95;;;;;;;12.12;71.17;95161.91;4831804;29;20042;-82
2021/11/08 00:33:03;;;;;;;103.90;58.53;;;;;;;12.10;70.87;95156.16;4831066;29;20033;-82
2021/11/08 00:35:28;;;;;;;92.30;46.72;;;;;;;12.12;71.62;95157.50;4845538;29;20132;-82
2021/11/08 00:37:54;;;;;;;74.03;37.35;;;;;;;12.10;72.03;95143.13;4844940;29;20089;-81
2021/11/08 00:40:19;;;;;;;92.25;45.67;;;;;;;12.13;71.64;95142.63;4860704;29;20060;-82
2021/11/08 00:42:45;;;;;;;113.57;54.40;;;;;;;12.14;70.87;95150.22;4830218;29;20200;-82
2021/11/08 00:45:11;;;;;;;93.78;51.28;;;;;;;12.10;70.82;95130.06;4830475;29;20089;-81
2021/11/08 00:47:37;;;;;;;96.70;50.55;;;;;;;12.07;71.42;95139.16;4830147;29;20093;-81
2021/11/08 00:50:04;;;;;;;122.32;55.17;;;;;;;12.10;71.38;95119.66;4829097;29;20033;-82
2021/11/08 00:52:30;;;;;;;107.50;53.97;;;;;;;12.08;71.88;95134.75;4830197;29;20029;-81
2021/11/08 00:54:58;;;;;;;105.93;51.65;;;;;;;12.08;71.77;95124.31;4829785;29;20124;-81
2021/11/08 00:57:26;;;;;;;170.70;76.10;;;;;;;12.06;71.61;95123.75;4830231;29;20711;-82
2021/11/08 00:59:53;;;;;;;180.05;82.00;;;;;;;11.98;70.41;95130.91;4845192;29;20409;-82
2021/11/08 01:02:24;;;;;;;140.85;67.90;;;;;;;11.94;70.86;95135.00;4830656;29;20075;-82
2021/11/08 01:04:50;;;;;;;131.57;62.83;;;;;;;11.88;71.25;95125.53;4845528;29;20501;-81
2021/11/08 01:07:15;;;;;;;99.45;50.60;;;;;;;11.91;71.87;95119.84;4829400;29;20096;-81
2021/11/08 01:09:41;;;;;;;129.93;62.13;;;;;;;11.90;70.72;95113.03;4843507;29;20658;-82
2021/11/08 01:12:07;;;;;;;117.30;61.03;;;;;;;11.87;70.90;95107.47;4829736;29;20041;-82
2021/11/08 01:14:58;;;;;;;100.18;50.55;;;;;;;11.89;71.67;95100.25;4844290;29;20029;-81
2021/11/08 01:17:24;;;;;;;112.45;56.60;;;;;;;11.85;71.46;95110.31;4859310;29;20049;-83
2021/11/08 01:19:50;;;;;;;104.63;56.00;;;;;;;11.80;70.73;95099.81;4844471;29;20041;-82
2021/11/08 01:22:17;;;;;;;110.45;53.95;;;;;;;11.78;70.54;95104.44;4879896;23;20621;-82
2021/11/08 01:24:52;;;;;;;108.35;53.38;;;;;;;11.72;70.05;95108.78;4880372;29;20458;-82
2021/11/08 01:27:19;;;;;;;101.32;55.95;;;;;;;11.71;69.99;95114.19;4866244;29;20045;-82
2021/11/08 01:29:44;;;;;;;95.65;53.25;;;;;;;11.68;70.63;95109.44;4853028;29;20064;-83
2021/11/08 01:32:10;;;;;;;104.68;56.20;;;;;;;11.67;70.32;95098.22;4839683;29;20485;-83
2021/11/08 01:34:36;;;;;;;88.63;48.90;;;;;;;11.68;70.97;95096.41;4855776;29;20093;-83
2021/11/08 01:37:04;;;;;;;94.50;50.65;;;;;;;11.63;71.06;95101.53;4854299;29;20033;-83
2021/11/08 01:39:34;;;;;;;95.68;52.17;;;;;;;11.66;71.30;95095.88;4839559;29;20509;-82
2021/11/08 01:42:00;;;;;;;91.20;52.35;;;;;;;11.59;69.91;95087.41;4839216;29;20666;-83
2021/11/08 01:44:28;;;;;;;99.32;52.13;;;;;;;11.53;70.37;95085.69;4852589;29;20037;-83
2021/11/08 01:47:01;;;;;;;110.80;57.38;;;;;;;11.52;70.76;95078.91;4857013;29;20029;-83
2021/11/08 01:49:27;;;;;;;98.10;54.72;;;;;;;11.51;71.18;95078.13;4857512;29;20469;-82
2021/11/08 01:51:53;;;;;;;99.57;51.30;;;;;;;11.52;70.31;95071.09;4852877;29;20037;-82
2021/11/08 01:54:18;;;;;;;103.45;55.45;;;;;;;11.49;70.15;95074.97;4876293;29;20044;-81
2021/11/08 01:56:45;;;;;;;105.15;57.28;;;;;;;11.42;70.24;95080.31;4877240;29;20033;-81
2021/11/08 01:59:10;;;;;;;105.80;53.55;;;;;;;11.42;70.24;95077.69;4853551;29;20038;-81
2021/11/08 02:01:36;;;;;;;67.35;39.10;;;;;;;11.46;71.08;95075.44;4859876;29;20043;-82
2021/11/08 02:04:01;;;;;;;65.93;35.92;;;;;;;11.46;73.10;95078.03;4873250;29;20037;-81
2021/11/08 02:06:37;;;;;;;66.72;37.75;;;;;;;11.50;73.92;95075.75;4869501;29;20064;-82
2021/11/08 02:09:03;;;;;;;92.22;41.58;;;;;;;11.45;71.81;95073.84;4883206;29;20051;-82
2021/11/08 02:11:33;;;;;;;68.72;40.70;;;;;;;11.46;71.88;95083.22;4855920;29;20043;-82
2021/11/08 02:13:59;;;;;;;62.60;34.08;;;;;;;11.40;71.61;95076.34;4856055;29;20041;-81
2021/11/08 02:16:24;;;;;;;65.00;33.47;;;;;;;11.32;72.74;95074.88;4852518;29;20048;-83
2021/11/08 02:18:51;;;;;;;65.30;37.42;;;;;;;11.32;73.51;95074.88;4854371;29;20084;-83
2021/11/08 02:21:17;;;;;;;69.20;37.28;;;;;;;11.25;73.36;95079.44;4838882;29;20048;-82
2021/11/08 02:23:42;;;;;;;71.25;39.03;;;;;;;11.19;73.63;95064.72;4837974;29;20046;-82
2021/11/08 02:26:13;;;;;;;70.30;39.15;;;;;;;11.19;74.67;95075.13;4861537;29;20429;-83
2021/11/08 02:31:27;;;;;;;72.18;35.28;;;;;;;11.21;73.59;95075.69;4900463;29;20066;-82
2021/11/08 02:33:53;;;;;;;55.22;34.25;;;;;;;11.20;72.46;95071.50;4869940;29;20128;-82
2021/11/08 02:36:21;;;;;;;63.15;34.03;;;;;;;11.21;71.74;95067.09;4850033;29;20129;-82
2021/11/08 02:38:49;;;;;;;63.72;34.00;;;;;;;11.12;71.64;95074.47;4849709;29;20128;-82
2021/11/08 02:41:16;;;;;;;72.60;35.13;;;;;;;11.13;71.49;95078.66;4866203;29;20049;-81
2021/11/08 02:43:57;;;;;;;62.67;34.45;;;;;;;11.13;71.61;95076.06;5604074;23;20007;31
2021/11/08 02:46:26;;;;;;;68.15;36.80;;;;;;;11.10;71.93;95072.09;4871719;29;20049;-82
2021/11/08 02:48:52;;;;;;;56.83;34.42;;;;;;;11.09;72.31;95074.94;4877382;29;20037;-81
2021/11/08 02:54:22;;;;;;;58.30;33.22;;;;;;;11.12;72.37;95054.44;4871183;29;20065;-81
2021/11/08 02:56:48;;;;;;;61.25;36.20;;;;;;;11.10;72.44;95050.50;4874061;29;20044;-81
2021/11/08 02:59:37;;;;;;;67.60;34.50;;;;;;;11.08;72.44;95036.91;4872693;29;20032;-82
2021/11/08 03:02:04;;;;;;;60.78;35.17;;;;;;;11.07;72.51;95040.53;4873530;29;20057;-81
2021/11/08 03:04:33;;;;;;;67.28;36.83;;;;;;;11.07;72.11;95038.72;4879310;29;20069;-82
2021/11/08 03:07:00;;;;;;;71.28;35.45;;;;;;;11.08;72.19;95031.72;4879348;29;20042;-82
2021/11/08 03:09:30;;;;;;;61.67;33.65;;;;;;;11.08;72.89;95036.91;4894216;29;20061;-82
2021/11/08 03:11:57;;;;;;;74.10;36.55;;;;;;;11.08;72.65;95027.28;4877989;29;20056;-81
2021/11/08 03:14:26;;;;;;;73.80;35.85;;;;;;;11.04;72.47;95035.78;4886784;29;20048;-82
2021/11/08 03:16:59;;;;;;;65.22;36.65;;;;;;;11.01;72.48;95046.63;4871887;29;20113;-81
2021/11/08 03:25:03;;;;;;;79.38;43.30;;;;;;;10.85;71.26;95045.53;4888693;29;20101;-84
2021/11/08 03:30:09;;;;;;;81.95;41.97;;;;;;;10.87;72.35;95034.88;4899805;29;20044;-83
2021/11/08 03:35:10;;;;;;;84.20;46.20;;;;;;;10.88;73.00;95039.06;5376810;23;20048;-82
2021/11/08 03:37:38;;;;;;;89.47;47.78;;;;;;;10.87;72.52;95034.88;4894041;29;20073;-82
2021/11/08 03:40:05;;;;;;;79.93;43.50;;;;;;;10.81;72.95;95040.00;4875661;29;20029;-82
2021/11/08 03:42:31;;;;;;;83.20;45.40;;;;;;;10.83;72.28;95024.94;4877033;29;20083;-82
2021/11/08 03:44:56;;;;;;;90.20;45.53;;;;;;;10.83;73.08;95024.94;4898657;29;20477;-82
2021/11/08 03:47:25;;;;;;;77.35;45.10;;;;;;;10.83;72.56;95024.94;4883296;29;20069;-82
2021/11/08 03:49:51;;;;;;;98.63;49.70;;;;;;;10.81;72.26;95029.59;4899825;29;20131;-81
2021/11/08 03:52:17;;;;;;;92.95;48.00;;;;;;;10.77;72.52;95025.84;4910202;23;20543;-81
2021/11/08 03:54:42;;;;;;;88.22;48.72;;;;;;;10.76;72.71;95023.50;4870430;29;20395;-81
2021/11/08 03:57:08;;;;;;;102.63;50.88;;;;;;;10.82;73.30;95022.56;4840375;29;20039;-81
2021/11/08 03:59:33;;;;;;;106.20;51.80;;;;;;;10.83;73.83;95018.94;4853988;29;20097;-81
2021/11/08 04:01:59;;;;;;;97.47;48.58;;;;;;;10.80;72.38;95009.78;4894616;29;20040;-83
2021/11/08 04:04:24;;;;;;;90.28;49.53;;;;;;;10.80;72.17;95014.19;5693385;24;20041;-83
2021/11/08 04:06:50;;;;;;;75.53;41.92;;;;;;;10.76;72.53;95024.28;4901721;29;20048;-83
2021/11/08 04:09:17;;;;;;;81.18;42.08;;;;;;;10.76;72.86;95024.28;4922227;23;20052;-82
2021/11/08 04:11:43;;;;;;;118.50;54.08;;;;;;;10.67;70.99;95030.81;4899642;29;20032;-83
2021/11/08 04:14:10;;;;;;;121.55;60.97;;;;;;;10.66;70.60;95029.25;4883637;29;20037;-82
2021/11/08 04:16:36;;;;;;;140.07;71.72;;;;;;;10.59;70.41;95028.59;4894999;29;20100;-82
2021/11/08 04:19:02;;;;;;;120.32;62.45;;;;;;;10.62;69.97;95028.13;4883528;29;20037;-82
2021/11/08 04:21:27;;;;;;;125.75;61.30;;;;;;;10.57;70.56;95029.81;4896545;29;20053;-84
2021/11/08 04:23:53;;;;;;;129.07;67.15;;;;;;;10.55;69.71;95030.03;4882725;29;20516;-85
2021/11/08 04:26:19;;;;;;;121.82;63.05;;;;;;;10.54;71.50;95025.84;4880062;29;20037;-86
2021/11/08 04:28:54;;;;;;;113.03;62.20;;;;;;;10.52;71.75;95028.69;4878338;29;20037;-84
2021/11/08 04:31:19;;;;;;;122.75;69.25;;;;;;;10.51;71.68;95026.31;4850915;29;20089;-86
2021/11/08 04:33:49;;;;;;;142.80;77.05;;;;;;;10.54;71.40;95036.25;4879369;29;20083;-85
2021/11/08 04:36:40;;;;;;;135.18;76.90;;;;;;;10.50;70.90;95038.50;4877737;29;20575;-82
2021/11/08 04:39:16;;;;;;;116.60;65.68;;;;;;;10.53;72.48;95034.66;4881798;29;20033;-83
2021/11/08 04:50:11;;;;;;;175.25;94.70;;;;;;;10.46;71.68;95044.41;4892533;29;20045;-83
2021/11/08 05:22:30;;;;;;;106.72;53.53;;;;;;;10.82;71.56;95023.34;4888429;29;20117;-83
2021/11/08 05:30:09;;;;;;;90.28;47.28;;;;;;;10.96;70.86;95025.72;4881040;29;20068;-84
2021/11/08 05:32:36;;;;;;;95.35;58.53;;;;;;;11.01;70.65;95023.22;4865115;29;20033;-86
2021/11/08 05:35:03;;;;;;;118.90;70.53;;;;;;;11.02;70.19;95020.38;4898323;29;20037;-86
2021/11/08 05:37:29;;;;;;;123.07;64.03;;;;;;;11.09;70.16;95017.69;4897428;29;20047;-85
2021/11/08 05:39:57;;;;;;;115.05;68.70;;;;;;;11.19;70.24;95025.66;4898842;29;20033;-85
2021/11/08 05:42:24;;;;;;;143.77;76.20;;;;;;;11.29;69.33;95030.31;4896002;29;20541;-85
2021/11/08 05:44:50;;;;;;;119.22;62.75;;;;;;;11.34;69.67;95036.38;4879654;29;20493;-85
2021/11/08 05:47:15;;;;;;;136.95;69.30;;;;;;;11.47;69.54;95037.94;4882063;29;20033;-85
2021/11/08 05:49:42;;;;;;;111.93;58.70;;;;;;;11.59;69.33;95027.50;4880606;29;20500;-85
2021/11/08 05:52:08;;;;;;;167.02;86.18;;;;;;;11.71;68.22;95039.47;4879555;29;20041;-84
2021/11/08 05:54:33;;;;;;;179.27;93.80;;;;;;;11.80;67.25;95032.06;4893826;29;20434;-84
2021/11/08 06:51:18;;;;;;;61.42;31.48;;;;;;;13.40;65.50;95058.50;4851090;29;20061;-85
2021/11/08 06:53:46;;;;;;;64.47;30.00;;;;;;;13.45;65.63;95058.56;4849125;29;20677;-83
2021/11/08 06:56:12;;;;;;;56.00;31.45;;;;;;;13.48;65.60;95050.22;4861021;29;20037;-84
2021/11/08 06:58:38;;;;;;;68.53;31.88;;;;;;;13.66;65.44;95047.31;4848152;29;20161;-87
2021/11/08 07:01:04;;;;;;;60.70;31.88;;;;;;;13.90;65.22;95050.44;4826500;29;20143;-87
2021/11/08 07:03:29;;;;;;;71.85;31.77;;;;;;;14.15;64.37;95049.88;4851221;29;20038;-86
2021/11/08 07:05:55;;;;;;;52.28;31.08;;;;;;;14.36;63.91;95043.81;4853199;29;20122;-84
2021/11/08 07:08:21;;;;;;;74.28;43.30;;;;;;;14.60;63.77;95046.91;4843194;29;20057;-85
2021/11/08 07:10:47;;;;;;;82.50;38.67;;;;;;;14.82;63.14;95040.78;4834934;29;20037;-85
2021/11/08 07:13:18;;;;;;;73.40;40.15;;;;;;;15.05;61.78;95039.59;4843395;29;20376;-86
2021/11/08 07:15:43;;;;;;;75.38;40.17;;;;;;;15.23;61.65;95039.16;4836410;29;20120;-84
2021/11/08 07:18:10;;;;;;;79.22;39.25;;;;;;;15.40;61.14;95042.38;4855378;29;20060;-84
2021/11/08 07:20:36;;;;;;;72.93;39.72;;;;;;;15.56;60.53;95033.53;4825513;29;20089;-83
2021/11/08 07:23:02;;;;;;;81.63;42.05;;;;;;;15.81;59.47;95032.88;4850567;29;20041;-86
2021/11/08 07:25:28;;;;;;;86.43;42.03;;;;;;;15.96;59.09;95028.72;4861605;29;20081;-87
2021/11/08 07:28:10;;;;;;;91.78;42.88;;;;;;;16.09;59.08;95021.09;4848923;29;20029;-83
2021/11/08 07:30:36;;;;;;;84.28;44.08;;;;;;;16.37;58.49;95029.53;4855928;29;20073;-82
2021/11/08 07:33:02;;;;;;;88.57;44.35;;;;;;;16.51;58.35;95030.56;4872602;29;20072;-87
2021/11/08 07:35:28;;;;;;;73.90;42.17;;;;;;;16.66;57.77;95025.31;4829967;29;20046;-82
2021/11/08 07:37:53;;;;;;;82.70;46.47;;;;;;;16.78;57.51;95023.25;4860765;29;20049;-83
2021/11/08 07:40:19;;;;;;;75.45;44.50;;;;;;;16.94;56.81;95024.00;4856610;29;20533;-81
2021/11/08 07:42:46;;;;;;;77.20;45.25;;;;;;;17.08;56.42;95026.84;4838264;29;20041;-81
2021/11/08 07:45:11;;;;;;;76.43;44.63;;;;;;;17.24;56.11;95024.94;4856991;29;20030;-83
2021/11/08 07:47:37;;;;;;;84.05;44.03;;;;;;;17.35;55.39;95024.66;4852799;29;20418;-82
2021/11/08 07:50:04;;;;;;;82.38;42.53;;;;;;;17.48;55.76;95031.19;4823192;29;20110;-86
2021/11/08 07:52:29;;;;;;;86.68;42.10;;;;;;;17.66;55.79;95029.78;4845195;29;20093;-83
2021/11/08 07:54:55;;;;;;;73.72;44.60;;;;;;;17.82;55.12;95023.44;4857427;29;20046;-86
2021/11/08 07:57:20;;;;;;;84.38;44.83;;;;;;;17.95;55.14;95016.78;4837230;29;20041;-81
2021/11/08 07:59:46;;;;;;;69.70;42.20;;;;;;;18.07;54.20;95016.44;4849434;29;20589;-86
2021/11/08 08:02:11;;;;;;;71.72;41.13;;;;;;;18.16;54.05;95012.94;4838303;29;20045;-85
2021/11/08 08:04:37;;;;;;;82.35;41.35;;;;;;;18.27;54.50;95003.94;4841926;29;20052;-82
2021/11/08 08:07:03;;;;;;;86.75;40.35;;;;;;;18.39;54.55;95006.22;4853192;29;20430;-83
2021/11/08 08:09:28;;;;;;;69.97;40.28;;;;;;;18.52;53.48;95002.91;4855958;29;20128;-83
2021/11/08 08:11:54;;;;;;;68.63;39.58;;;;;;;18.62;53.56;95001.28;4850352;29;20125;-82
2021/11/08 08:14:19;;;;;;;72.50;37.58;;;;;;;18.72;52.82;94996.75;4819162;29;20064;-83
2021/11/08 08:16:45;;;;;;;67.07;38.30;;;;;;;18.78;52.05;94994.84;4851014;29;20042;-82
2021/11/08 08:19:10;;;;;;;62.70;38.15;;;;;;;18.84;51.80;94997.13;4860089;29;20041;-82
2021/11/08 08:21:36;;;;;;;55.17;34.05;;;;;;;18.89;51.25;94991.84;4857886;29;20051;-82
2021/11/08 08:24:03;;;;;;;66.25;35.30;;;;;;;18.90;51.60;94997.88;4856337;29;20441;-82
2021/11/08 08:26:31;;;;;;;61.75;33.97;;;;;;;18.96;51.62;94991.47;4841019;29;21024;-83
2021/11/08 08:29:09;;;;;;;64.38;33.55;;;;;;;19.00;50.86;94997.75;4851053;29;20507;-83
2021/11/08 08:31:43;;;;;;;70.57;31.67;;;;;;;19.05;50.84;95003.00;4843737;29;20029;-82
2021/11/08 08:34:10;;;;;;;59.40;32.65;;;;;;;19.12;51.10;95000.00;4839816;29;20588;-82
2021/11/08 08:36:38;;;;;;;54.15;30.73;;;;;;;19.14;50.56;95006.56;4874963;29;20041;-83
2021/11/08 08:39:04;;;;;;;59.47;32.47;;;;;;;19.04;50.99;94993.53;4852614;29;20560;-82
2021/11/08 08:41:30;;;;;;;51.75;30.73;;;;;;;19.07;50.88;95006.13;4860990;29;20042;-81
2021/11/08 08:43:55;;;;;;;54.33;31.73;;;;;;;19.07;50.75;95008.78;4841208;29;20034;-82
2021/11/08 08:46:25;;;;;;;60.85;31.52;;;;;;;18.80;50.76;95000.59;4847630;29;20041;-84
2021/11/08 08:48:52;;;;;;;59.03;31.45;;;;;;;18.72;50.95;95003.88;4825255;29;20431;-82
2021/11/08 08:51:20;;;;;;;55.13;28.73;;;;;;;18.63;50.94;94993.13;4834427;29;20081;-84
2021/11/08 08:53:45;;;;;;;57.65;27.60;;;;;;;18.56;51.28;94998.69;4841085;29;20038;-83
2021/11/08 08:56:13;;;;;;;51.00;28.75;;;;;;;18.55;51.00;95002.41;4834008;29;20029;-84
2021/11/08 08:58:38;;;;;;;65.22;31.17;;;;;;;18.54;51.38;94998.16;4849643;29;20049;-80
2021/11/08 09:01:16;;;;;;;51.67;29.27;;;;;;;18.52;51.27;95000.28;4849287;29;20034;-79
2021/11/08 09:03:42;;;;;;;77.88;29.88;;;;;;;18.48;51.65;94987.97;4833161;29;20057;-81
2021/11/08 09:06:20;;;;;;;68.72;33.78;;;;;;;18.42;51.26;95003.03;4818141;29;20121;-82
2021/11/08 09:08:46;;;;;;;62.60;31.80;;;;;;;18.43;51.96;94988.00;4850885;29;20544;-81
2021/11/08 09:14:31;;;;;;;64.40;30.50;;;;;;;18.56;51.77;94982.91;4850634;29;20048;-85
2021/11/08 09:16:57;;;;;;;63.55;32.47;;;;;;;18.57;51.04;94979.19;4874627;29;20110;-84
2021/11/08 09:19:22;;;;;;;56.80;30.05;;;;;;;18.66;51.34;94979.41;4853534;29;20599;-83
2021/11/08 09:21:48;;;;;;;67.30;31.08;;;;;;;18.74;50.73;94978.03;4836777;29;20038;-85
2021/11/08 09:25:04;;;;;;;59.15;31.67;;;;;;;18.83;50.70;94978.97;4832420;29;20041;-83
2021/11/08 09:27:29;;;;;;;68.18;30.80;;;;;;;18.89;50.29;94965.47;4855320;29;20120;-82
2021/11/08 09:29:55;;;;;;;61.30;28.67;;;;;;;18.95;50.07;94971.47;4858533;29;20049;-82
2021/11/08 09:32:21;;;;;;;59.00;29.35;;;;;;;19.01;49.51;94962.44;4850914;29;20496;-84
2021/11/08 09:34:48;;;;;;;50.45;25.83;;;;;;;19.01;49.64;94956.38;4833673;29;20069;-82
2021/11/08 09:37:16;;;;;;;78.70;30.25;;;;;;;19.02;49.52;94966.63;4855006;29;20049;-83
2021/11/08 09:39:42;;;;;;;67.93;31.00;;;;;;;19.01;49.33;94959.00;4835094;29;20033;-83
2021/11/08 09:42:12;;;;;;;56.38;31.00;;;;;;;19.04;49.10;94961.13;4818008;29;20121;-85
2021/11/08 09:44:39;;;;;;;63.95;29.48;;;;;;;19.09;49.28;94956.56;4841573;29;20053;-83
2021/11/08 09:47:04;;;;;;;74.07;30.50;;;;;;;19.16;49.09;94950.94;4834794;29;20537;-87
2021/11/08 09:49:30;;;;;;;58.55;31.13;;;;;;;19.19;48.87;94953.78;4845384;29;20048;-86
2021/11/08 09:51:57;;;;;;;74.25;32.08;;;;;;;19.17;48.71;94950.66;4845472;29;20041;-86
2021/11/08 09:54:27;;;;;;;60.67;31.13;;;;;;;19.14;48.46;94940.69;4844467;29;20029;-81
2021/11/08 09:56:53;;;;;;;66.05;30.33;;;;;;;19.26;48.66;94942.13;4851640;29;20042;-81
2021/11/08 09:59:21;;;;;;;64.97;30.98;;;;;;;19.32;48.18;94925.16;4849756;29;20045;-83
2021/11/08 10:01:47;;;;;;;64.72;32.15;;;;;;;19.37;48.22;94933.81;4849849;29;20053;-84
2021/11/08 10:04:14;;;;;;;68.60;33.70;;;;;;;19.48;47.96;94945.00;4832090;29;20037;-84
2021/11/08 10:06:40;;;;;;;71.78;34.90;;;;;;;19.60;47.39;94932.22;4848298;29;20042;-85
2021/11/08 10:09:10;;;;;;;63.40;33.05;;;;;;;19.65;47.74;94937.41;4819354;29;20045;-82
2021/11/08 10:11:36;;;;;;;68.63;31.98;;;;;;;19.75;47.46;94928.56;4847190;29;20125;-82
2021/11/08 10:14:02;;;;;;;83.75;33.75;;;;;;;19.77;47.42;94924.56;4845450;29;20403;-85
2021/11/08 10:16:32;;;;;;;72.35;34.47;;;;;;;19.89;47.12;94928.66;4846699;29;20105;-85
2021/11/08 10:18:59;;;;;;;65.95;30.55;;;;;;;19.97;46.97;94923.47;4835801;29;21001;-85
2021/11/08 10:21:32;;;;;;;77.50;31.08;;;;;;;20.02;46.41;94922.63;4855419;29;20056;-82
2021/11/08 10:24:00;;;;;;;70.97;32.83;;;;;;;20.11;46.32;94920.91;4849020;29;20537;-80
2021/11/08 10:26:28;;;;;;;74.78;34.30;;;;;;;20.17;46.22;94917.09;4845537;29;20060;-80
2021/11/08 10:29:00;;;;;;;81.90;32.60;;;;;;;20.23;46.25;94912.53;4847831;29;20069;-80
2021/11/08 10:31:31;;;;;;;72.38;31.48;;;;;;;20.31;46.05;94907.34;4852851;29;20038;-81
2021/11/08 10:34:02;;;;;;;72.90;33.10;;;;;;;20.39;46.32;94911.97;4836368;29;20166;-81
2021/11/08 10:36:27;;;;;;;56.20;31.13;;;;;;;20.52;46.15;94907.03;4853068;29;20033;-81
2021/11/08 10:39:33;;;;;;;66.72;31.95;;;;;;;20.63;45.01;94901.25;4858897;29;20030;-81
2021/11/08 10:41:59;;;;;;;64.40;30.10;;;;;;;20.74;44.55;94901.88;4854763;29;20469;-81
2021/11/08 10:44:24;;;;;;;65.93;29.48;;;;;;;20.84;44.24;94896.41;4851773;29;20038;-79
2021/11/08 10:47:01;;;;;;;56.35;27.35;;;;;;;20.97;44.00;94895.59;4874280;29;20077;-81
2021/11/08 10:49:28;;;;;;;73.05;29.63;;;;;;;21.12;43.94;94897.16;4835511;29;20064;-81
2021/11/08 10:51:56;;;;;;;66.70;27.30;;;;;;;21.22;42.99;94885.59;4859480;29;20041;-80
2021/11/08 10:54:37;;;;;;;58.58;25.25;;;;;;;21.27;42.15;94893.44;4854027;29;20034;-81
2021/11/08 10:57:10;;;;;;;50.42;24.42;;;;;;;21.38;42.04;94904.59;4854840;29;20124;-81
2021/11/08 10:59:46;;;;;;;45.40;23.20;;;;;;;21.45;41.86;94900.44;4855695;29;20029;-81
2021/11/08 11:02:13;;;;;;;51.47;24.42;;;;;;;21.47;41.62;94895.66;4860642;29;20409;-81
2021/11/08 11:04:46;;;;;;;54.10;23.65;;;;;;;21.54;41.73;94903.97;4858702;29;20454;-81
2021/11/08 11:07:18;;;;;;;47.38;22.83;;;;;;;21.63;41.79;94898.72;4851371;29;21342;-81
2021/11/08 11:09:44;;;;;;;46.97;23.80;;;;;;;21.70;41.23;94898.34;4851661;29;20037;-80
2021/11/08 11:12:11;;;;;;;58.58;19.98;;;;;;;21.60;40.84;94895.91;4858412;29;20043;-81
2021/11/08 11:17:07;;;;;;;37.53;16.98;;;;;;;21.56;39.31;94891.22;5204932;23;20112;-81
2021/11/08 11:19:33;;;;;;;53.83;18.52;;;;;;;21.26;40.13;94903.25;4917171;29;20083;-81
2021/11/08 11:22:02;;;;;;;46.45;18.05;;;;;;;21.31;40.22;94898.91;4915344;29;20032;-81
2021/11/08 11:24:41;;;;;;;65.15;19.05;;;;;;;21.37;40.51;94898.53;4899619;29;20024;-80
2021/11/08 11:27:10;;;;;;;34.72;17.63;;;;;;;21.40;40.67;94890.00;4910129;29;20036;-81
2021/11/08 11:29:35;;;;;;;41.22;18.08;;;;;;;21.47;40.88;94900.94;4916519;29;20035;-81
2021/11/08 11:32:00;;;;;;;41.50;17.48;;;;;;;21.58;40.81;94899.63;4932186;29;20084;-80
2021/11/08 11:34:26;;;;;;;50.35;18.35;;;;;;;21.68;40.17;94892.56;4934387;29;20091;-82
2021/11/08 11:36:51;;;;;;;40.35;18.60;;;;;;;21.73;40.29;94895.88;4916202;29;20024;-81
2021/11/08 11:39:17;;;;;;;45.03;17.05;;;;;;;21.76;40.14;94894.50;4896639;29;20048;-81
2021/11/08 11:44:35;;;;;;;34.35;15.50;;;;;;;21.79;39.63;94893.88;5028414;23;20060;-81
2021/11/08 11:47:00;;;;;;;41.20;16.55;;;;;;;21.79;39.86;94902.59;4916931;29;20035;-81
2021/11/08 11:49:26;;;;;;;46.67;16.13;;;;;;;21.79;39.53;94893.88;4915349;29;20033;-81
2021/11/08 11:51:56;;;;;;;54.75;15.75;;;;;;;21.77;39.49;94890.75;4900065;29;20024;-81
2021/11/08 11:54:25;;;;;;;44.60;16.25;;;;;;;21.74;39.63;94891.34;4910799;29;20032;-81
2021/11/08 11:56:52;;;;;;;39.38;15.07;;;;;;;21.77;39.76;94890.75;4899431;29;20039;-80
2021/11/08 11:59:18;;;;;;;46.53;14.15;;;;;;;21.82;39.91;94888.78;4896352;29;20039;-81
2021/11/08 12:01:44;;;;;;;56.40;15.63;;;;;;;21.90;40.00;94889.16;4913125;29;20103;-81
2021/11/08 12:04:10;;;;;;;35.00;13.27;;;;;;;21.94;39.22;94896.19;4915081;29;20559;-81
2021/11/08 12:06:37;;;;;;;36.30;13.93;;;;;;;22.00;39.26;94895.00;4918078;29;20091;-81
2021/11/08 12:09:05;;;;;;;52.20;13.35;;;;;;;22.01;38.84;94880.66;4885521;29;20036;-81
2021/11/08 12:11:34;;;;;;;33.22;11.65;;;;;;;22.01;38.62;94891.25;4920617;23;20156;-81
2021/11/08 12:14:31;;;;;;;40.03;10.68;;;;;;;21.95;38.51;94889.78;4866099;29;20529;-82
2021/11/08 12:17:17;;;;;;;35.58;10.32;;;;;;;21.93;38.88;94891.19;4862001;29;20049;-80
2021/11/08 12:19:43;;;;;;;41.88;11.70;;;;;;;21.90;38.86;94881.97;4861525;29;20034;-79
2021/11/08 12:22:22;;;;;;;37.80;11.38;;;;;;;21.92;39.03;94881.69;4861009;29;20525;-79
2021/11/08 12:25:00;;;;;;;23.30;10.90;;;;;;;21.92;39.03;94882.47;4860831;29;20501;-81
2021/11/08 12:27:42;;;;;;;32.38;11.15;;;;;;;21.98;38.82;94880.50;4857884;29;20037;-82
2021/11/08 12:30:12;;;;;;;38.15;11.38;;;;;;;22.04;38.64;94884.56;4860904;29;20490;-82
2021/11/08 12:32:49;;;;;;;37.33;11.55;;;;;;;22.09;38.72;94882.59;4863754;29;20033;-81
2021/11/08 12:35:21;;;;;;;43.80;13.48;;;;;;;22.17;38.86;94883.75;4870112;29;20054;-79
2021/11/08 12:37:47;;;;;;;47.17;13.07;;;;;;;22.21;38.88;94886.56;4870437;29;20033;-83
2021/11/08 12:40:13;;;;;;;39.83;13.02;;;;;;;22.22;39.19;94888.91;4835132;29;20112;-83
2021/11/08 12:42:42;;;;;;;44.55;14.48;;;;;;;22.19;39.26;94876.28;4849553;29;20538;-84
2021/11/08 12:45:14;;;;;;;37.20;11.68;;;;;;;22.20;39.66;94877.06;4865822;29;20037;-83
2021/11/08 12:47:40;;;;;;;41.13;12.65;;;;;;;22.21;39.59;94873.31;4847933;29;20033;-83
2021/11/08 12:50:07;;;;;;;34.63;12.15;;;;;;;22.25;39.62;94863.69;4860567;29;20273;-84
2021/11/08 12:52:38;;;;;;;45.80;13.95;;;;;;;22.29;39.84;94848.75;4830034;29;20037;-83
2021/11/08 12:55:08;;;;;;;46.67;13.10;;;;;;;22.34;39.42;94845.97;4861117;29;20033;-84
2021/11/08 12:57:34;;;;;;;37.83;12.88;;;;;;;22.34;40.38;94841.47;4861209;29;20061;-84
2021/11/08 13:00:23;;;;;;;41.00;16.83;;;;;;;22.34;40.38;94862.66;4845455;29;20110;-84
2021/11/08 13:02:54;;;;;;;36.55;13.70;;;;;;;22.34;40.29;94867.16;4875545;29;20052;-83
2021/11/08 13:05:41;;;;;;;36.00;14.48;;;;;;;22.34;39.95;94883.06;4845467;29;20066;-83
2021/11/08 13:08:24;;;;;;;45.78;14.85;;;;;;;22.37;40.27;94871.84;4860454;29;20069;-83
2021/11/08 13:11:10;;;;;;;47.85;15.07;;;;;;;22.45;40.59;94871.09;4859989;29;20050;-84
2021/11/08 13:13:36;;;;;;;43.22;13.20;;;;;;;22.43;40.39;94873.28;4860006;29;20033;-83
2021/11/08 13:16:04;;;;;;;36.38;13.68;;;;;;;22.47;40.37;94861.00;4860980;29;20038;-83
2021/11/08 13:18:37;;;;;;;36.25;13.30;;;;;;;22.52;40.32;94862.72;4854623;29;20628;-84
2021/11/08 13:21:03;;;;;;;40.13;12.82;;;;;;;22.57;40.03;94865.25;4860589;29;20033;-84
2021/11/08 13:23:31;;;;;;;48.22;12.77;;;;;;;22.60;39.79;94868.06;4844751;29;20037;-84
2021/11/08 13:25:57;;;;;;;35.88;11.95;;;;;;;22.61;39.53;94866.97;4860316;29;20033;-84